Time;durP1;ratioP1;P1;durP2;ratioP2;P2;SDS_P1;SDS_P2;PMS_P1;PMS_P2;Temp;Humidity;BMP_temperature;BMP_pressure;BME280_temperature;BME280_humidity;BME280_pressure;Samples;Min_cycle;Max_cycle;Signal;HPM_P1;HPM_P2
2021/07/21 00:00:29;;;;;;;2.50;0.77;;;11.60;78.10;;;;;;5010503;28;20026;-69
2021/07/21 00:02:56;;;;;;;3.72;1.42;;;11.50;78.10;;;;;;5008341;28;21113;-67
2021/07/21 00:05:25;;;;;;;2.75;0.90;;;11.60;77.70;;;;;;5011041;28;20033;-70
2021/07/21 00:07:56;;;;;;;2.60;1.38;;;11.50;77.90;;;;;;5011050;28;20029;-70
2021/07/21 00:10:24;;;;;;;4.07;2.10;;;11.50;78.20;;;;;;5008783;28;20096;-70
2021/07/21 00:16:21;;;;;;;6.53;1.75;;;11.50;78.40;;;;;;5010212;28;20080;-69
2021/07/21 00:22:51;;;;;;;5.38;1.67;;;11.50;76.90;;;;;;5011863;28;20040;-69
2021/07/21 00:25:57;;;;;;;4.32;1.33;;;11.50;78.20;;;;;;5019192;28;20026;-69
2021/07/21 00:29:03;;;;;;;6.17;1.73;;;11.50;78.90;;;;;;5009391;28;20133;-69
2021/07/21 00:32:09;;;;;;;5.80;1.40;;;11.50;79.60;;;;;;5009072;28;20773;-69
2021/07/21 00:35:15;;;;;;;4.20;1.10;;;11.60;80.40;;;;;;5008758;28;20318;-69
2021/07/21 00:38:21;;;;;;;6.07;1.23;;;11.60;80.40;;;;;;5009885;28;20266;-68
2021/07/21 00:41:28;;;;;;;3.25;0.98;;;11.60;80.50;;;;;;5008759;28;20393;-69
2021/07/21 00:44:34;;;;;;;3.33;1.27;;;11.60;80.50;;;;;;5007220;28;20022;-69
2021/07/21 00:47:40;;;;;;;6.25;1.10;;;11.60;80.30;;;;;;5007452;28;20102;-68
2021/07/21 00:50:46;;;;;;;2.28;1.15;;;11.60;80.60;;;;;;5009011;28;20041;-69
2021/07/21 00:53:52;;;;;;;4.22;1.23;;;11.60;81.10;;;;;;5009618;28;20080;-68
2021/07/21 00:56:58;;;;;;;3.23;1.67;;;11.60;81.10;;;;;;5007185;28;20493;-69
2021/07/21 01:00:04;;;;;;;3.28;1.30;;;11.70;81.10;;;;;;5008844;28;20755;-68
2021/07/21 01:03:10;;;;;;;3.65;0.93;;;11.70;81.00;;;;;;5010030;28;20061;-70
2021/07/21 01:06:16;;;;;;;2.53;0.70;;;11.60;80.80;;;;;;5010564;28;20084;-70
2021/07/21 01:09:22;;;;;;;3.95;0.80;;;11.70;80.70;;;;;;5012690;28;20044;-70
2021/07/21 01:12:31;;;;;;;3.55;0.75;;;11.70;80.60;;;;;;5015273;28;20588;-70
2021/07/21 01:15:56;;;;;;;4.55;0.80;;;11.70;80.60;;;;;;5011891;28;20033;-69
2021/07/21 01:19:02;;;;;;;2.92;1.10;;;11.60;80.80;;;;;;5013559;28;20052;-69
2021/07/21 01:22:01;;;;;;;5.43;1.30;;;11.60;81.60;;;;;;5006146;28;20029;-67
2021/07/21 01:25:20;;;;;;;4.43;1.13;;;11.60;81.60;;;;;;5012349;28;20045;-69
2021/07/21 01:28:26;;;;;;;6.43;1.20;;;11.60;81.90;;;;;;5008247;28;20038;-69
2021/07/21 01:31:32;;;;;;;7.65;1.65;;;11.60;81.70;;;;;;5012332;28;20037;-69
2021/07/21 01:34:38;;;;;;;3.67;1.27;;;11.60;81.80;;;;;;5013709;28;20022;-69
2021/07/21 01:37:44;;;;;;;4.90;0.82;;;11.50;81.70;;;;;;5013086;28;20037;-69
2021/07/21 01:40:59;;;;;;;2.20;0.88;;;11.50;81.50;;;;;;5015142;28;20359;-70
2021/07/21 01:44:08;;;;;;;3.40;1.77;;;11.50;81.90;;;;;;5011600;28;20030;-70
2021/07/21 01:47:21;;;;;;;3.67;1.42;;;11.50;81.90;;;;;;5013558;28;20072;-70
2021/07/21 01:50:27;;;;;;;11.38;2.00;;;11.50;82.00;;;;;;5012987;28;20054;-67
2021/07/21 01:53:33;;;;;;;2.20;0.90;;;11.50;81.80;;;;;;5011493;28;20058;-70
2021/07/21 01:56:39;;;;;;;3.45;1.52;;;11.50;81.90;;;;;;5010683;28;20033;-70
2021/07/21 01:59:45;;;;;;;7.03;1.53;;;11.50;81.70;;;;;;5014585;28;20037;-71
2021/07/21 02:02:51;;;;;;;6.33;1.50;;;11.50;81.90;;;;;;5011303;28;20266;-69
2021/07/21 02:05:58;;;;;;;4.40;1.35;;;11.50;82.00;;;;;;5011515;28;20389;-71
2021/07/21 02:09:04;;;;;;;10.10;2.20;;;11.50;82.10;;;;;;5011845;28;20053;-70
2021/07/21 02:12:10;;;;;;;3.63;1.33;;;11.50;81.80;;;;;;5011374;28;20287;-70
2021/07/21 02:15:16;;;;;;;5.17;2.17;;;11.50;81.60;;;;;;5010958;28;20290;-70
2021/07/21 02:18:22;;;;;;;3.67;0.90;;;11.50;82.30;;;;;;5011055;28;20287;-68
2021/07/21 02:21:28;;;;;;;2.88;0.80;;;11.50;82.40;;;;;;5011602;28;20432;-70
2021/07/21 02:24:34;;;;;;;6.30;1.27;;;11.50;82.50;;;;;;5012690;28;20021;-70
2021/07/21 02:27:40;;;;;;;2.70;1.07;;;11.50;82.00;;;;;;5011774;28;20287;-70
2021/07/21 02:30:46;;;;;;;3.25;1.40;;;11.50;81.90;;;;;;5013241;28;20385;-70
2021/07/21 02:33:36;;;;;;;3.53;1.40;;;11.50;81.70;;;;;;5011576;28;20125;-71
2021/07/21 02:36:42;;;;;;;4.85;1.40;;;11.50;81.00;;;;;;5011464;28;20029;-70
2021/07/21 02:39:48;;;;;;;1.98;1.02;;;11.50;80.60;;;;;;5011271;28;20512;-70
2021/07/21 02:42:54;;;;;;;4.70;1.15;;;11.50;80.50;;;;;;5010918;28;20037;-68
2021/07/21 02:45:20;;;;;;;6.63;1.50;;;11.50;80.70;;;;;;5011596;28;20424;-71
2021/07/21 02:47:47;;;;;;;1.95;1.30;;;11.50;80.60;;;;;;5010552;28;20484;-70
2021/07/21 02:50:18;;;;;;;37.20;25.13;;;11.50;80.50;;;;;;5012446;28;20441;-71
2021/07/21 02:53:01;;;;;;;52.85;34.42;;;11.60;80.60;;;;;;5014542;28;20051;-68
2021/07/21 02:56:03;;;;;;;8.32;4.68;;;11.60;80.20;;;;;;5011996;28;20509;-69
2021/07/21 02:58:53;;;;;;;7.72;0.90;;;11.60;80.20;;;;;;5009834;28;20044;-70
2021/07/21 03:01:21;;;;;;;7.88;1.02;;;11.60;79.80;;;;;;5011218;28;20417;-71
2021/07/21 03:03:50;;;;;;;5.05;1.55;;;11.60;79.70;;;;;;5011040;28;20454;-69
2021/07/21 03:06:19;;;;;;;5.05;1.55;;;11.60;79.30;;;;;;5010097;28;20068;-71
2021/07/21 03:08:48;;;;;;;5.00;1.40;;;11.60;79.30;;;;;;5011507;28;20029;-71
2021/07/21 03:11:17;;;;;;;3.83;1.48;;;11.60;79.30;;;;;;5013024;28;20087;-71
2021/07/21 03:13:50;;;;;;;6.75;1.50;;;11.60;79.30;;;;;;5009996;28;20022;-71
2021/07/21 03:16:22;;;;;;;7.15;1.55;;;11.60;79.40;;;;;;5011888;28;20030;-72
2021/07/21 03:18:52;;;;;;;7.88;1.10;;;11.60;79.30;;;;;;5011176;28;20048;-71
2021/07/21 03:21:19;;;;;;;4.90;1.17;;;11.60;79.90;;;;;;5010668;28;20474;-71
2021/07/21 03:23:46;;;;;;;4.10;1.80;;;11.60;80.00;;;;;;5011092;28;20496;-70
2021/07/21 03:26:13;;;;;;;7.47;2.00;;;11.60;80.90;;;;;;5011175;28;20023;-68
2021/07/21 03:28:40;;;;;;;3.60;1.17;;;11.70;82.10;;;;;;5011733;28;20022;-69
2021/07/21 03:31:07;;;;;;;2.92;1.08;;;11.70;83.30;;;;;;5009609;28;20030;-71
2021/07/21 03:33:34;;;;;;;8.38;0.93;;;11.70;83.70;;;;;;5013528;28;20052;-70
2021/07/21 03:36:05;;;;;;;3.60;0.82;;;11.70;84.20;;;;;;5009946;28;20014;-69
2021/07/21 03:38:32;;;;;;;4.38;1.65;;;11.60;84.40;;;;;;5010050;28;20022;-69
2021/07/21 03:40:59;;;;;;;5.05;1.38;;;11.60;84.40;;;;;;5009115;28;20073;-70
2021/07/21 03:43:26;;;;;;;3.20;1.25;;;11.60;84.60;;;;;;5011733;28;20670;-68
2021/07/21 03:45:57;;;;;;;4.50;1.10;;;11.60;84.70;;;;;;5010479;28;20025;-69
2021/07/21 03:48:25;;;;;;;6.72;1.23;;;11.60;85.00;;;;;;5011736;28;20035;-68
2021/07/21 03:50:55;;;;;;;49.08;38.70;;;11.60;85.30;;;;;;5012375;28;20048;-68
2021/07/21 03:53:23;;;;;;;77.95;52.72;;;11.60;85.60;;;;;;5010171;28;20033;-69
2021/07/21 03:55:50;;;;;;;18.30;9.98;;;11.60;85.50;;;;;;5009896;28;20088;-75
2021/07/21 03:58:17;;;;;;;7.25;3.20;;;11.70;85.30;;;;;;5011314;28;20037;-71
2021/07/21 04:00:44;;;;;;;2.10;0.95;;;11.70;85.00;;;;;;5010336;28;20084;-71
2021/07/21 04:03:50;;;;;;;4.53;1.20;;;11.70;85.00;;;;;;5009330;28;20508;-69
2021/07/21 04:06:57;;;;;;;5.22;1.17;;;11.70;84.70;;;;;;5008462;28;20018;-69
2021/07/21 04:09:43;;;;;;;;;;;11.60;84.50;;;;;;5010469;28;20037;-72
2021/07/21 04:12:49;;;;;;;8.00;2.38;;;11.60;83.90;;;;;;5010705;28;19909;-72
2021/07/21 04:15:55;;;;;;;4.38;2.15;;;11.60;83.90;;;;;;5015476;28;20366;-72
2021/07/21 04:19:01;;;;;;;4.88;1.52;;;11.60;83.60;;;;;;5012482;28;20046;-68
2021/07/21 04:21:29;;;;;;;5.80;1.85;;;11.50;83.50;;;;;;5013602;28;20034;-72
2021/07/21 04:23:57;;;;;;;7.72;1.48;;;11.50;83.20;;;;;;5012693;28;20044;-67
2021/07/21 04:26:26;;;;;;;6.90;2.45;;;11.50;83.00;;;;;;5010394;28;20026;-69
2021/07/21 04:28:54;;;;;;;4.63;1.17;;;11.50;82.80;;;;;;5011808;28;20033;-71
2021/07/21 04:31:26;;;;;;;35.03;21.48;;;11.40;82.90;;;;;;5011590;28;20033;-72
2021/07/21 04:33:57;;;;;;;19.58;11.52;;;11.50;83.10;;;;;;5012695;28;20104;-71
2021/07/21 04:36:24;;;;;;;6.05;3.28;;;11.50;82.70;;;;;;5009815;28;20030;-70
2021/07/21 04:38:52;;;;;;;5.00;1.50;;;11.50;82.60;;;;;;5019236;28;20477;-72
2021/07/21 04:41:21;;;;;;;5.90;1.38;;;11.50;82.50;;;;;;5013490;28;20022;-71
2021/07/21 04:43:48;;;;;;;9.43;1.95;;;11.50;82.30;;;;;;5013309;28;20048;-69
2021/07/21 04:46:17;;;;;;;6.30;1.88;;;11.50;82.40;;;;;;5013013;28;20026;-70
2021/07/21 04:48:44;;;;;;;7.53;1.92;;;11.50;82.90;;;;;;5010002;28;20034;-73
2021/07/21 04:51:14;;;;;;;5.43;1.55;;;11.50;83.20;;;;;;5011568;28;21816;-74
2021/07/21 04:53:41;;;;;;;6.10;1.63;;;11.50;83.50;;;;;;5010109;28;20018;-73
2021/07/21 04:56:07;;;;;;;5.45;1.35;;;11.40;84.00;;;;;;5012275;28;20033;-68
2021/07/21 04:58:34;;;;;;;8.77;1.70;;;11.40;83.90;;;;;;5010231;28;20025;-70
2021/07/21 05:01:00;;;;;;;5.65;1.50;;;11.40;84.00;;;;;;5013686;28;20045;-72
2021/07/21 05:03:32;;;;;;;6.85;1.75;;;11.40;84.60;;;;;;5011085;28;20573;-75
2021/07/21 05:05:58;;;;;;;5.70;1.70;;;11.30;84.80;;;;;;5010933;28;20068;-68
2021/07/21 05:08:25;;;;;;;4.95;2.40;;;11.30;85.00;;;;;;5012279;28;20060;-69
2021/07/21 05:10:51;;;;;;;7.05;2.08;;;11.30;85.20;;;;;;5010428;28;20032;-71
2021/07/21 05:13:19;;;;;;;6.13;1.20;;;11.30;85.50;;;;;;5011594;28;20101;-68
2021/07/21 05:15:47;;;;;;;7.30;1.92;;;11.30;85.10;;;;;;5010290;28;20068;-73
2021/07/21 05:18:13;;;;;;;5.20;0.98;;;11.30;84.90;;;;;;5010919;28;20489;-68
2021/07/21 05:20:40;;;;;;;9.95;2.20;;;11.30;84.90;;;;;;5008443;28;20018;-69
2021/07/21 05:23:07;;;;;;;3.65;1.58;;;11.30;84.90;;;;;;5011133;28;20033;-73
2021/07/21 05:25:37;;;;;;;5.88;2.20;;;11.30;85.00;;;;;;5010033;28;20029;-70
2021/07/21 05:28:10;;;;;;;4.00;1.77;;;11.30;85.10;;;;;;5011979;28;20481;-68
2021/07/21 05:30:37;;;;;;;4.03;2.45;;;11.30;85.50;;;;;;5012828;28;20577;-73
2021/07/21 05:33:04;;;;;;;5.78;1.92;;;11.40;85.30;;;;;;5012432;28;20028;-68
2021/07/21 05:35:30;;;;;;;7.63;1.40;;;11.40;85.30;;;;;;5013446;28;20018;-71
2021/07/21 05:37:57;;;;;;;4.15;1.65;;;11.30;85.20;;;;;;5012307;28;20108;-72
2021/07/21 05:40:24;;;;;;;5.13;1.35;;;11.30;85.40;;;;;;5012291;28;20120;-72
2021/07/21 05:42:50;;;;;;;6.07;2.45;;;11.30;85.60;;;;;;5013923;28;20018;-71
2021/07/21 05:45:16;;;;;;;5.90;2.15;;;11.30;85.70;;;;;;5013018;28;20096;-69
2021/07/21 05:47:43;;;;;;;3.92;1.17;;;11.30;85.60;;;;;;5013042;28;20048;-73
2021/07/21 05:50:11;;;;;;;9.30;2.15;;;11.30;85.80;;;;;;5009594;28;20466;-72
2021/07/21 05:52:37;;;;;;;6.75;1.67;;;11.30;86.30;;;;;;5013840;28;20105;-72
2021/07/21 05:55:04;;;;;;;4.80;1.65;;;11.30;86.20;;;;;;5011495;28;20014;-72
2021/07/21 05:57:31;;;;;;;5.75;1.40;;;11.30;86.20;;;;;;5012199;28;20018;-69
2021/07/21 05:59:57;;;;;;;5.53;2.28;;;11.40;86.40;;;;;;5012720;28;20030;-73
2021/07/21 06:02:24;;;;;;;11.80;1.77;;;11.40;86.10;;;;;;5012159;28;20018;-73
2021/07/21 06:04:51;;;;;;;8.10;1.98;;;11.40;86.40;;;;;;5012330;28;20046;-71
2021/07/21 06:07:17;;;;;;;9.88;2.70;;;11.40;86.70;;;;;;5010460;28;20025;-72
2021/07/21 06:09:44;;;;;;;2.75;1.27;;;11.40;86.70;;;;;;5011877;28;20077;-72
2021/07/21 06:12:10;;;;;;;5.88;1.85;;;11.40;86.80;;;;;;5011068;28;20421;-74
2021/07/21 06:14:37;;;;;;;7.25;1.40;;;11.40;86.70;;;;;;5011719;28;20026;-73
2021/07/21 06:17:03;;;;;;;6.30;1.63;;;11.40;86.60;;;;;;5011965;28;20108;-72
2021/07/21 06:19:33;;;;;;;8.38;2.00;;;11.40;86.70;;;;;;5011189;28;20038;-72
2021/07/21 06:22:03;;;;;;;10.07;2.15;;;11.40;86.70;;;;;;5014290;28;20380;-72
2021/07/21 06:24:30;;;;;;;5.28;1.88;;;11.50;86.60;;;;;;5010346;28;20022;-71
2021/07/21 06:26:58;;;;;;;3.90;1.50;;;11.50;86.30;;;;;;5012185;28;20109;-66
2021/07/21 06:29:25;;;;;;;3.20;1.00;;;11.50;86.30;;;;;;5010272;28;20033;-71
2021/07/21 06:31:52;;;;;;;6.65;2.00;;;11.50;86.40;;;;;;5011651;28;20010;-69
2021/07/21 06:34:18;;;;;;;7.07;1.85;;;11.50;86.40;;;;;;5011535;28;20048;-68
2021/07/21 06:36:45;;;;;;;8.48;1.65;;;11.50;86.40;;;;;;5011813;28;20018;-70
2021/07/21 06:39:51;;;;;;;6.65;1.40;;;11.50;86.70;;;;;;5006509;28;20030;-69
2021/07/21 06:42:57;;;;;;;12.60;1.88;;;11.50;87.20;;;;;;5009285;28;20078;-69
2021/07/21 06:46:03;;;;;;;8.60;1.95;;;11.40;88.00;;;;;;5011641;28;20022;-67
2021/07/21 06:49:09;;;;;;;6.93;2.13;;;11.40;88.90;;;;;;5012640;28;20022;-73
2021/07/21 06:52:15;;;;;;;6.85;2.15;;;11.50;89.20;;;;;;5008267;28;20022;-69
2021/07/21 06:55:21;;;;;;;9.65;2.88;;;11.50;89.40;;;;;;5011336;28;20084;-68
2021/07/21 06:57:48;;;;;;;7.25;2.97;;;11.50;89.80;;;;;;5012685;28;20029;-68
2021/07/21 07:00:15;;;;;;;7.03;2.53;;;11.60;90.00;;;;;;5011232;28;20113;-68
2021/07/21 07:02:41;;;;;;;6.95;2.40;;;11.50;90.00;;;;;;5008824;28;20104;-66
2021/07/21 07:05:08;;;;;;;7.32;1.60;;;11.60;90.10;;;;;;5009117;28;20042;-67
2021/07/21 07:07:34;;;;;;;8.00;2.22;;;11.60;90.20;;;;;;5012517;28;20029;-67
2021/07/21 07:10:02;;;;;;;9.85;1.90;;;11.60;90.40;;;;;;5010141;28;20041;-68
2021/07/21 07:12:29;;;;;;;11.10;6.15;;;11.60;90.40;;;;;;5008800;28;20018;-70
2021/07/21 07:14:55;;;;;;;41.45;24.65;;;11.60;90.50;;;;;;5012709;28;20018;-69
2021/07/21 07:17:22;;;;;;;6.78;3.95;;;11.60;90.50;;;;;;5009737;28;20028;-69
2021/07/21 07:19:48;;;;;;;10.93;2.65;;;11.60;90.50;;;;;;5009452;28;20126;-68
2021/07/21 07:22:15;;;;;;;13.30;2.45;;;11.60;90.50;;;;;;5010120;28;20022;-68
2021/07/21 07:24:42;;;;;;;5.95;2.10;;;11.60;90.50;;;;;;5010051;28;20115;-67
2021/07/21 07:27:08;;;;;;;12.65;4.53;;;11.60;90.60;;;;;;5011737;28;20025;-67
2021/07/21 07:29:35;;;;;;;10.85;3.20;;;11.60;90.70;;;;;;5011308;28;20034;-68
2021/07/21 07:32:02;;;;;;;10.82;2.83;;;11.50;90.70;;;;;;5008848;28;20114;-68
2021/07/21 07:34:28;;;;;;;15.38;3.65;;;11.60;91.00;;;;;;5011732;28;20413;-67
2021/07/21 07:36:55;;;;;;;12.65;2.22;;;11.60;91.40;;;;;;5012960;28;20057;-68
2021/07/21 07:39:21;;;;;;;12.38;3.03;;;11.70;92.00;;;;;;5011139;28;20343;-68
2021/07/21 07:41:49;;;;;;;15.73;2.78;;;11.70;92.30;;;;;;5008332;28;20056;-69
2021/07/21 07:44:16;;;;;;;9.07;3.47;;;11.70;92.30;;;;;;5009375;28;20026;-67
2021/07/21 07:46:42;;;;;;;7.28;2.55;;;11.80;92.30;;;;;;5009785;28;20018;-68
2021/07/21 07:49:10;;;;;;;15.68;3.97;;;11.90;92.30;;;;;;5010388;28;20489;-68
2021/07/21 07:51:37;;;;;;;20.30;3.90;;;11.90;92.20;;;;;;5008619;28;20030;-68
2021/07/21 07:54:05;;;;;;;18.80;5.55;;;12.00;92.30;;;;;;5010705;28;20049;-68
2021/07/21 07:56:32;;;;;;;16.20;5.40;;;12.00;92.50;;;;;;5011375;28;20025;-67
2021/07/21 07:58:59;;;;;;;17.98;5.07;;;12.00;92.90;;;;;;5009848;28;20556;-67
2021/07/21 08:01:26;;;;;;;15.20;4.68;;;12.00;93.20;;;;;;5009007;28;20477;-69
2021/07/21 08:03:53;;;;;;;12.68;4.13;;;12.00;93.30;;;;;;5008622;28;20022;-68
2021/07/21 08:06:19;;;;;;;14.60;3.92;;;12.00;93.50;;;;;;5013436;28;20049;-67
2021/07/21 08:08:46;;;;;;;15.52;3.88;;;12.10;92.90;;;;;;5007939;28;20054;-69
2021/07/21 08:11:12;;;;;;;10.68;3.25;;;12.00;92.50;;;;;;5010209;28;21094;-68
2021/07/21 08:13:40;;;;;;;15.27;3.50;;;12.00;92.60;;;;;;5007957;28;20045;-70
2021/07/21 08:16:08;;;;;;;14.68;2.63;;;12.10;92.10;;;;;;5010102;28;20034;-68
2021/07/21 08:18:35;;;;;;;8.27;2.10;;;12.10;92.10;;;;;;5012661;28;20077;-69
2021/07/21 08:21:03;;;;;;;13.25;3.63;;;12.10;92.00;;;;;;5007751;28;20953;-69
2021/07/21 08:23:30;;;;;;;13.10;3.10;;;12.20;92.00;;;;;;5009530;28;20072;-68
2021/07/21 08:25:57;;;;;;;16.55;2.90;;;12.20;92.00;;;;;;5008291;28;20061;-70
2021/07/21 08:28:23;;;;;;;19.02;3.72;;;12.30;92.00;;;;;;5010161;28;20025;-71
2021/07/21 08:30:50;;;;;;;12.48;2.92;;;12.30;92.20;;;;;;5007596;28;20073;-67
2021/07/21 08:33:17;;;;;;;28.30;5.00;;;12.40;92.20;;;;;;5012819;28;20038;-67
2021/07/21 08:35:44;;;;;;;20.27;3.10;;;12.40;92.10;;;;;;5007740;28;20018;-68
2021/07/21 08:38:11;;;;;;;21.98;5.85;;;12.40;92.10;;;;;;5011077;28;20120;-70
2021/07/21 08:40:40;;;;;;;15.30;3.53;;;12.40;92.40;;;;;;5009004;28;20029;-68
2021/07/21 08:43:09;;;;;;;20.10;5.30;;;12.50;92.60;;;;;;5008953;28;20041;-69
2021/07/21 08:45:56;;;;;;;22.13;3.38;;;12.50;92.70;;;;;;5007758;28;20105;-68
2021/07/21 08:48:26;;;;;;;21.38;6.68;;;12.50;92.80;;;;;;5008075;28;20022;-68
2021/07/21 08:50:54;;;;;;;14.73;3.70;;;12.60;92.60;;;;;;4997050;28;20034;-68
2021/07/21 08:53:20;;;;;;;20.35;4.72;;;12.60;92.40;;;;;;5010169;28;20109;-67
2021/07/21 08:55:50;;;;;;;26.77;6.30;;;12.70;92.20;;;;;;5007051;28;20022;-67
2021/07/21 08:58:20;;;;;;;20.23;4.55;;;12.70;92.40;;;;;;5009984;28;20084;-68
2021/07/21 09:00:51;;;;;;;19.10;5.43;;;12.70;92.30;;;;;;5008182;28;20050;-71
2021/07/21 09:03:20;;;;;;;13.40;3.90;;;12.80;91.10;;;;;;5009592;28;20018;-68
2021/07/21 09:05:56;;;;;;;30.20;5.85;;;12.80;91.00;;;;;;5008445;28;20028;-67
2021/07/21 09:08:22;;;;;;;24.33;7.40;;;12.90;90.80;;;;;;5007482;28;21195;-70
2021/07/21 09:10:49;;;;;;;15.85;4.90;;;13.00;90.90;;;;;;5010662;28;20385;-69
2021/07/21 09:13:17;;;;;;;18.02;5.50;;;13.10;90.60;;;;;;5010934;28;20056;-68
2021/07/21 09:15:48;;;;;;;19.13;4.45;;;13.20;90.30;;;;;;5007928;28;20021;-68
2021/07/21 09:18:16;;;;;;;26.65;9.32;;;13.30;90.20;;;;;;5009422;28;20053;-67
2021/07/21 09:20:57;;;;;;;26.98;8.57;;;13.30;90.40;;;;;;5008045;28;20024;-67
2021/07/21 09:23:38;;;;;;;18.52;4.78;;;13.40;90.60;;;;;;5009339;28;20014;-67
2021/07/21 09:26:07;;;;;;;16.38;3.30;;;13.40;87.90;;;;;;5012041;28;20029;-70
2021/07/21 09:28:39;;;;;;;24.63;5.28;;;13.40;86.70;;;;;;5012557;28;20397;-67
2021/07/21 09:31:07;;;;;;;19.92;6.65;;;13.30;85.90;;;;;;5011120;28;20026;-69
2021/07/21 09:33:35;;;;;;;24.17;6.13;;;13.20;86.10;;;;;;5013875;28;20033;-68
2021/07/21 09:36:01;;;;;;;24.83;5.03;;;13.20;86.40;;;;;;5013929;28;20080;-67
2021/07/21 09:38:31;;;;;;;18.67;4.72;;;13.20;86.20;;;;;;5011589;28;20537;-67
2021/07/21 09:41:06;;;;;;;19.13;4.43;;;13.20;85.40;;;;;;5011125;28;20036;-68
2021/07/21 09:43:34;;;;;;;21.77;5.32;;;13.20;85.50;;;;;;5014225;28;20025;-68
2021/07/21 09:46:07;;;;;;;23.00;5.40;;;13.20;84.60;;;;;;5012417;28;20481;-66
2021/07/21 09:48:40;;;;;;;10.32;3.33;;;13.20;84.40;;;;;;5011720;28;20049;-66
2021/07/21 09:51:07;;;;;;;13.23;3.63;;;13.10;85.20;;;;;;5008439;28;20030;-68
2021/07/21 09:53:49;;;;;;;21.50;4.80;;;13.10;85.80;;;;;;5011703;28;20032;-67
2021/07/21 09:56:29;;;;;;;14.70;4.40;;;13.10;86.10;;;;;;5012981;28;20018;-68
2021/07/21 09:59:28;;;;;;;19.58;3.80;;;13.20;86.10;;;;;;5011516;28;20453;-68
2021/07/21 10:01:55;;;;;;;25.13;3.85;;;13.20;86.80;;;;;;5010381;28;20090;-69
2021/07/21 10:04:37;;;;;;;20.20;3.80;;;13.30;85.80;;;;;;5012616;28;20111;-68
2021/07/21 10:09:50;;;;;;;16.05;4.45;;;13.20;85.00;;;;;;5007142;28;20123;-69
2021/07/21 10:12:19;;;;;;;20.08;3.67;;;13.20;85.50;;;;;;5012467;28;20080;-69
2021/07/21 10:14:59;;;;;;;15.80;4.20;;;13.20;85.30;;;;;;5014178;28;20022;-72
2021/07/21 10:17:27;;;;;;;9.95;3.08;;;13.10;84.70;;;;;;5012112;28;20389;-69
2021/07/21 10:19:54;;;;;;;9.85;2.95;;;13.20;84.90;;;;;;5010815;28;20100;-69
2021/07/21 10:22:20;;;;;;;16.13;5.93;;;13.30;85.80;;;;;;5010019;28;20018;-71
2021/07/21 10:24:47;;;;;;;14.00;3.83;;;13.50;83.00;;;;;;5011397;28;20025;-70
2021/07/21 10:27:15;;;;;;;12.18;4.32;;;13.60;80.40;;;;;;5008586;28;20025;-70
2021/07/21 10:29:45;;;;;;;9.38;2.75;;;13.70;80.20;;;;;;5008952;28;20139;-67
2021/07/21 10:32:15;;;;;;;16.02;2.90;;;13.70;81.80;;;;;;5011832;28;20026;-69
2021/07/21 10:34:42;;;;;;;5.57;2.03;;;13.60;81.40;;;;;;5010486;28;20026;-66
2021/07/21 10:37:10;;;;;;;8.13;2.00;;;13.60;80.30;;;;;;5014348;28;20116;-69
2021/07/21 10:39:38;;;;;;;8.88;1.98;;;13.60;81.00;;;;;;5007882;28;20038;-68
2021/07/21 10:42:07;;;;;;;7.32;2.38;;;13.70;81.60;;;;;;5010237;28;20535;-68
2021/07/21 10:44:35;;;;;;;13.35;2.67;;;13.70;80.50;;;;;;5012246;28;20022;-68
2021/07/21 10:47:19;;;;;;;10.35;2.13;;;13.60;79.60;;;;;;5012878;28;20026;-68
2021/07/21 10:49:50;;;;;;;8.25;2.97;;;13.50;78.90;;;;;;5010127;28;20025;-68
2021/07/21 11:00:23;;;;;;;10.68;3.30;;;13.40;81.60;;;;;;5012851;28;20121;-70
2021/07/21 11:02:52;;;;;;;16.77;4.72;;;13.50;82.50;;;;;;5008630;28;20034;-66
2021/07/21 11:05:39;;;;;;;15.10;4.22;;;13.60;83.70;;;;;;5010257;28;20018;-66
2021/07/21 11:08:15;;;;;;;33.40;16.95;;;13.70;84.10;;;;;;5009309;28;20565;-66
2021/07/21 11:10:47;;;;;;;17.02;6.00;;;13.70;84.50;;;;;;5010517;28;20041;-67
2021/07/21 11:13:29;;;;;;;11.50;3.42;;;13.80;84.40;;;;;;5011940;28;20037;-65
2021/07/21 11:16:04;;;;;;;12.77;3.50;;;13.70;83.40;;;;;;5010345;28;20523;-66
2021/07/21 11:18:41;;;;;;;17.35;3.50;;;13.70;82.50;;;;;;5010151;28;20118;-67
2021/07/21 11:21:14;;;;;;;15.07;2.67;;;13.70;81.70;;;;;;5011011;28;20037;-66
2021/07/21 11:23:56;;;;;;;18.35;3.90;;;13.70;81.30;;;;;;5009714;28;20477;-68
2021/07/21 11:26:34;;;;;;;12.75;4.47;;;13.70;80.70;;;;;;5010604;28;20022;-67
2021/07/21 11:29:25;;;;;;;13.07;3.30;;;13.70;80.90;;;;;;5011718;28;20018;-67
2021/07/21 11:31:55;;;;;;;12.80;3.28;;;13.60;81.10;;;;;;5009233;28;20113;-66
2021/07/21 11:35:07;;;;;;;12.68;2.67;;;13.50;81.40;;;;;;5005017;28;20063;-65
2021/07/21 11:38:13;;;;;;;13.20;4.10;;;13.40;83.40;;;;;;5011059;28;20021;-65
2021/07/21 11:41:22;;;;;;;18.13;4.78;;;13.30;84.80;;;;;;5009052;28;20022;-65
2021/07/21 11:44:01;;;;;;;13.27;3.58;;;13.50;86.20;;;;;;5008943;28;20014;-68
2021/07/21 11:46:28;;;;;;;13.88;3.72;;;13.60;86.40;;;;;;5025310;28;20056;-67
2021/07/21 11:48:55;;;;;;;20.38;3.95;;;13.70;84.90;;;;;;5009082;28;20052;-67
2021/07/21 11:51:21;;;;;;;17.33;4.72;;;13.70;83.70;;;;;;5010586;28;20021;-67
2021/07/21 11:53:48;;;;;;;17.52;5.07;;;13.70;82.80;;;;;;5009364;28;20129;-67
2021/07/21 11:56:16;;;;;;;17.23;5.50;;;13.70;83.80;;;;;;5010791;28;20064;-66
2021/07/21 11:58:42;;;;;;;23.35;4.60;;;13.50;86.50;;;;;;5011680;28;20026;-67
2021/07/21 12:01:09;;;;;;;16.02;4.05;;;13.40;87.30;;;;;;5010935;28;20028;-67
2021/07/21 12:03:48;;;;;;;13.38;2.45;;;13.30;85.60;;;;;;5009270;28;20029;-67
2021/07/21 12:06:25;;;;;;;7.22;3.55;;;13.20;80.20;;;;;;5007803;28;20018;-66
2021/07/21 12:08:56;;;;;;;14.77;3.00;;;13.10;78.80;;;;;;5010723;28;20431;-66
2021/07/21 12:11:26;;;;;;;11.30;2.75;;;13.10;78.90;;;;;;5007808;28;20029;-67
2021/07/21 12:14:03;;;;;;;9.82;2.00;;;13.20;79.10;;;;;;5008832;28;20448;-67
2021/07/21 12:16:38;;;;;;;10.77;1.80;;;13.40;78.40;;;;;;5010561;28;20020;-68
2021/07/21 12:19:06;;;;;;;8.23;2.35;;;13.40;77.00;;;;;;5009445;28;20686;-67
2021/07/21 12:21:34;;;;;;;16.60;11.00;;;13.50;77.80;;;;;;5010299;28;20442;-68
2021/07/21 12:24:06;;;;;;;57.22;33.40;;;13.70;77.40;;;;;;5006908;28;20017;-67
2021/07/21 12:26:46;;;;;;;24.85;9.13;;;13.80;77.30;;;;;;5009506;28;20101;-67
2021/07/21 12:29:12;;;;;;;10.05;4.20;;;14.00;75.70;;;;;;5011044;28;20036;-67
2021/07/21 12:31:39;;;;;;;11.50;3.05;;;14.10;71.80;;;;;;5013379;28;20025;-67
2021/07/21 12:34:17;;;;;;;12.05;1.77;;;14.30;70.80;;;;;;5009616;28;20014;-68
2021/07/21 12:36:50;;;;;;;7.15;1.80;;;14.40;70.60;;;;;;5005340;28;20034;-67
2021/07/21 12:39:27;;;;;;;15.10;2.15;;;14.60;68.10;;;;;;5009363;28;20387;-67
2021/07/21 12:41:55;;;;;;;6.93;1.98;;;14.70;68.30;;;;;;5009539;28;20359;-69
2021/07/21 12:44:28;;;;;;;6.43;2.55;;;14.80;66.80;;;;;;5010709;28;20060;-68
2021/07/21 12:47:14;;;;;;;10.45;2.10;;;14.90;67.80;;;;;;5008642;28;20072;-67
2021/07/21 12:49:42;;;;;;;13.05;2.90;;;15.00;66.50;;;;;;5009934;28;20038;-69
2021/07/21 12:52:15;;;;;;;8.25;1.98;;;15.10;67.60;;;;;;5011570;28;20026;-67
2021/07/21 12:54:48;;;;;;;5.25;2.03;;;15.00;65.50;;;;;;5012575;28;20029;-67
2021/07/21 12:57:14;;;;;;;9.35;2.60;;;14.90;66.10;;;;;;5011229;28;20018;-72
2021/07/21 12:59:41;;;;;;;12.13;2.55;;;14.90;65.80;;;;;;5010857;28;20392;-67
2021/07/21 13:02:08;;;;;;;8.02;2.60;;;14.70;67.80;;;;;;5013861;28;20022;-67
2021/07/21 13:04:35;;;;;;;11.68;2.25;;;14.40;69.50;;;;;;5014648;28;20124;-68
2021/07/21 13:07:07;;;;;;;8.15;2.83;;;14.10;72.00;;;;;;5013135;28;20104;-68
2021/07/21 13:09:36;;;;;;;9.95;3.63;;;13.80;74.80;;;;;;5011924;28;20052;-67
2021/07/21 13:12:14;;;;;;;7.10;1.92;;;13.70;75.50;;;;;;5013688;28;20050;-67
2021/07/21 13:14:41;;;;;;;8.73;1.58;;;13.60;76.50;;;;;;5012718;28;20018;-67
2021/07/21 13:17:11;;;;;;;7.03;1.67;;;13.50;76.00;;;;;;5014921;28;20026;-67
2021/07/21 13:19:39;;;;;;;10.38;2.28;;;13.50;74.70;;;;;;5012973;28;20061;-67
2021/07/21 13:22:20;;;;;;;8.00;2.28;;;13.50;75.40;;;;;;5014379;28;20424;-67
2021/07/21 13:24:47;;;;;;;12.35;2.50;;;13.50;75.80;;;;;;5012445;28;20045;-67
2021/07/21 13:27:13;;;;;;;12.55;2.55;;;13.50;76.70;;;;;;5012639;28;20077;-67
2021/07/21 13:29:42;;;;;;;7.25;2.35;;;13.60;77.70;;;;;;5012289;28;20389;-67
2021/07/21 13:32:21;;;;;;;13.88;3.33;;;13.80;78.00;;;;;;5013050;28;20018;-67
2021/07/21 13:35:05;;;;;;;15.45;2.60;;;13.90;78.00;;;;;;5011821;28;20061;-68
2021/07/21 13:37:31;;;;;;;10.82;2.33;;;14.00;77.30;;;;;;5012674;28;20018;-68
2021/07/21 13:40:25;;;;;;;8.65;2.17;;;14.10;75.20;;;;;;5013320;28;20477;-68
2021/07/21 13:43:08;;;;;;;10.13;3.38;;;14.20;74.50;;;;;;5011925;28;20030;-66
2021/07/21 13:45:35;;;;;;;12.82;2.80;;;14.30;74.00;;;;;;5012407;28;20072;-67
2021/07/21 13:48:02;;;;;;;9.10;2.15;;;14.40;72.40;;;;;;5014779;28;20032;-65
2021/07/21 13:50:28;;;;;;;7.82;2.63;;;14.50;71.50;;;;;;5011052;28;20038;-69